createdAt,value
2023-04-16T00:01:29.031Z,8.60
2023-04-16T00:03:56.765Z,8.60
2023-04-16T00:06:24.414Z,8.60
2023-04-16T00:08:51.974Z,8.60
2023-04-16T00:11:19.507Z,8.60
2023-04-16T00:13:47.273Z,8.60
2023-04-16T00:16:14.824Z,8.60
2023-04-16T00:18:43.235Z,8.60
2023-04-16T00:21:11.172Z,8.60
2023-04-16T00:23:38.760Z,8.60
2023-04-16T00:26:06.234Z,8.60
2023-04-16T00:28:33.782Z,8.60
2023-04-16T00:31:01.835Z,8.60
2023-04-16T00:33:30.483Z,8.60
2023-04-16T00:38:30.308Z,8.60
2023-04-16T00:43:28.810Z,8.60
2023-04-16T00:45:58.086Z,8.60
2023-04-16T00:48:28.100Z,8.60
2023-04-16T00:50:57.313Z,8.60
2023-04-16T00:53:25.545Z,8.60
2023-04-16T00:55:56.068Z,8.60
2023-04-16T00:58:25.374Z,8.60
2023-04-16T01:00:53.081Z,8.60
2023-04-16T01:03:20.832Z,8.60
2023-04-16T01:05:49.519Z,8.60
2023-04-16T01:08:22.076Z,8.70
2023-04-16T01:10:49.680Z,8.70
2023-04-16T01:13:17.249Z,8.60
2023-04-16T01:15:44.794Z,8.60
2023-04-16T01:18:17.122Z,8.60
2023-04-16T01:20:45.584Z,8.60
2023-04-16T01:23:14.251Z,8.60
2023-04-16T01:25:41.974Z,8.60
2023-04-16T01:28:09.566Z,8.60
2023-04-16T01:30:37.253Z,8.60
2023-04-16T01:33:33.979Z,8.60
2023-04-16T01:36:01.648Z,8.60
2023-04-16T01:38:29.200Z,8.60
2023-04-16T01:41:00.049Z,8.60
2023-04-16T01:43:27.599Z,8.60
2023-04-16T01:46:12.296Z,8.60
2023-04-16T01:48:39.938Z,8.60
2023-04-16T01:51:07.545Z,8.60
2023-04-16T01:53:37.013Z,8.60
2023-04-16T01:56:05.976Z,8.60
2023-04-16T01:58:34.270Z,8.60
2023-04-16T02:01:02.149Z,8.60
2023-04-16T02:03:31.389Z,8.60
2023-04-16T02:05:59.159Z,8.60
2023-04-16T02:08:29.542Z,8.60
2023-04-16T02:11:00.572Z,8.60
2023-04-16T02:13:31.025Z,8.60
2023-04-16T02:15:58.659Z,8.50
2023-04-16T02:18:41.145Z,8.50
2023-04-16T02:21:08.887Z,8.60
2023-04-16T02:23:36.564Z,8.50
2023-04-16T02:26:04.514Z,8.50
2023-04-16T02:28:32.034Z,8.50
2023-04-16T02:30:59.950Z,8.50
2023-04-16T02:33:31.989Z,8.50
2023-04-16T02:36:02.703Z,8.50
2023-04-16T02:38:30.525Z,8.60
2023-04-16T02:43:26.838Z,8.50
2023-04-16T02:45:54.339Z,8.50
2023-04-16T02:48:21.932Z,8.50
2023-04-16T02:50:49.414Z,8.60
2023-04-16T02:53:17.000Z,8.50
2023-04-16T02:55:54.573Z,8.60
2023-04-16T02:58:24.521Z,8.60
2023-04-16T03:00:53.598Z,8.60
2023-04-16T03:03:21.943Z,8.50
2023-04-16T03:08:17.445Z,8.50
2023-04-16T03:10:45.009Z,8.50
2023-04-16T03:13:12.504Z,8.50
2023-04-16T03:15:40.376Z,8.40
2023-04-16T03:18:07.879Z,8.50
2023-04-16T03:20:35.384Z,8.50
2023-04-16T03:23:02.875Z,8.50
2023-04-16T03:25:30.601Z,8.40
2023-04-16T03:28:00.979Z,8.40
2023-04-16T03:30:28.557Z,8.40
2023-04-16T03:32:56.293Z,8.40
2023-04-16T03:35:23.951Z,8.40
2023-04-16T03:37:51.781Z,8.40
2023-04-16T03:40:19.323Z,8.40
2023-04-16T03:42:46.877Z,8.40
2023-04-16T03:45:15.279Z,8.30
2023-04-16T03:47:43.553Z,8.30
2023-04-16T03:50:11.746Z,8.30
2023-04-16T03:52:39.640Z,8.30
2023-04-16T03:55:07.643Z,8.30
2023-04-16T03:57:35.433Z,8.30
2023-04-16T04:00:10.100Z,8.20
2023-04-16T04:02:58.223Z,8.30
2023-04-16T04:05:26.080Z,8.20
2023-04-16T04:07:53.931Z,8.20
2023-04-16T04:10:21.500Z,8.20
2023-04-16T04:12:49.012Z,8.20
2023-04-16T04:15:16.624Z,8.20
2023-04-16T04:17:44.190Z,8.20
2023-04-16T04:20:12.437Z,8.20
2023-04-16T04:22:41.619Z,8.30
2023-04-16T04:25:10.642Z,8.20
2023-04-16T04:27:38.318Z,8.20
2023-04-16T04:30:06.717Z,8.20
2023-04-16T04:32:35.021Z,8.20
2023-04-16T04:35:03.410Z,8.20
2023-04-16T04:37:31.515Z,8.20
2023-04-16T04:39:59.098Z,8.20
2023-04-16T04:42:27.358Z,8.20
2023-04-16T04:44:56.029Z,8.20
2023-04-16T04:47:28.152Z,8.20
2023-04-16T04:49:56.660Z,8.20
2023-04-16T04:52:24.219Z,8.20
2023-04-16T04:54:53.057Z,8.20
2023-04-16T04:57:20.811Z,8.20
2023-04-16T04:59:51.893Z,8.20
2023-04-16T05:02:19.969Z,8.20
2023-04-16T05:04:47.753Z,8.20
2023-04-16T05:07:15.897Z,8.20
2023-04-16T05:09:43.437Z,8.20
2023-04-16T05:12:14.097Z,8.20
2023-04-16T05:14:41.748Z,8.20
2023-04-16T05:17:10.908Z,8.20
2023-04-16T05:19:38.686Z,8.20
2023-04-16T05:22:06.389Z,8.20
2023-04-16T05:24:34.146Z,8.20
2023-04-16T05:27:01.847Z,8.20
2023-04-16T05:29:29.916Z,8.20
2023-04-16T05:31:59.424Z,8.20
2023-04-16T05:34:27.023Z,8.10
2023-04-16T05:36:54.548Z,8.20
2023-04-16T05:39:22.505Z,8.20
2023-04-16T05:41:50.010Z,7.90
2023-04-16T05:44:17.593Z,8.20
2023-04-16T05:46:45.120Z,8.20
2023-04-16T05:49:12.683Z,8.20
2023-04-16T05:51:40.369Z,8.20
2023-04-16T05:54:07.882Z,8.30
2023-04-16T05:56:35.372Z,8.30
2023-04-16T05:59:03.113Z,8.30
2023-04-16T06:01:31.458Z,8.30
2023-04-16T06:04:00.313Z,8.40
2023-04-16T06:06:28.354Z,8.30
2023-04-16T06:08:55.978Z,8.40
2023-04-16T06:11:27.611Z,8.40
2023-04-16T06:13:55.340Z,8.50
2023-04-16T06:16:22.896Z,8.50
2023-04-16T06:18:50.552Z,8.60
2023-04-16T06:21:18.277Z,8.60
2023-04-16T06:23:45.877Z,8.60
2023-04-16T06:26:13.447Z,8.70
2023-04-16T06:28:40.990Z,8.70
2023-04-16T06:31:08.620Z,8.70
2023-04-16T06:33:36.259Z,8.70
2023-04-16T06:36:03.943Z,8.80
2023-04-16T06:38:31.700Z,8.80
2023-04-16T06:40:59.673Z,8.70
2023-04-16T06:43:30.299Z,8.80
2023-04-16T06:45:58.421Z,8.80
2023-04-16T06:48:26.026Z,8.90
2023-04-16T06:50:59.349Z,8.80
2023-04-16T06:53:26.972Z,8.80
2023-04-16T06:55:54.459Z,8.80
2023-04-16T06:58:22.501Z,8.80
2023-04-16T07:00:50.085Z,8.80
2023-04-16T07:03:17.687Z,8.80
2023-04-16T07:05:45.331Z,8.70
2023-04-16T07:08:12.909Z,8.70
2023-04-16T07:10:40.441Z,8.70
2023-04-16T07:13:08.511Z,8.60
2023-04-16T07:15:38.654Z,8.60
2023-04-16T07:20:34.201Z,8.50
2023-04-16T07:23:02.139Z,8.50
2023-04-16T07:25:29.689Z,8.50
2023-04-16T07:27:57.453Z,8.40
2023-04-16T07:30:25.294Z,8.40
2023-04-16T07:32:53.307Z,8.40
2023-04-16T07:35:20.974Z,8.40
2023-04-16T07:37:48.501Z,8.50
2023-04-16T07:40:16.235Z,8.50
2023-04-16T07:42:43.844Z,8.50
2023-04-16T07:45:11.622Z,8.60
2023-04-16T07:47:39.293Z,8.60
2023-04-16T07:50:07.994Z,8.60
2023-04-16T07:52:35.698Z,8.60
2023-04-16T07:55:03.414Z,8.60
2023-04-16T07:57:31.282Z,8.70
2023-04-16T07:59:58.916Z,8.80
2023-04-16T08:04:57.995Z,8.90
2023-04-16T08:07:26.144Z,8.90
2023-04-16T08:09:54.672Z,8.90
2023-04-16T08:12:22.438Z,9.00
2023-04-16T08:14:49.990Z,9.00
2023-04-16T08:17:17.773Z,9.00
2023-04-16T08:19:45.711Z,9.00
2023-04-16T08:22:14.007Z,9.00
2023-04-16T08:24:41.578Z,9.00
2023-04-16T08:27:18.652Z,9.00
2023-04-16T08:29:48.508Z,9.00
2023-04-16T08:32:16.106Z,9.00
2023-04-16T08:34:43.808Z,8.90
2023-04-16T08:37:11.323Z,8.90
2023-04-16T08:39:38.947Z,8.90
2023-04-16T08:42:12.029Z,8.90
2023-04-16T08:44:44.215Z,8.90
2023-04-16T08:47:13.593Z,8.90
2023-04-16T08:49:45.128Z,9.00
2023-04-16T08:52:20.252Z,9.00
2023-04-16T08:55:12.597Z,9.00
2023-04-16T08:58:03.555Z,9.10
2023-04-16T09:00:32.534Z,9.10
2023-04-16T09:03:00.636Z,9.10
2023-04-16T09:05:29.776Z,9.10
2023-04-16T09:07:57.317Z,9.10
2023-04-16T09:10:26.906Z,9.10
2023-04-16T09:13:00.842Z,9.10
2023-04-16T09:15:29.517Z,9.10
2023-04-16T09:17:57.679Z,9.10
2023-04-16T09:20:25.393Z,9.30
2023-04-16T09:22:52.978Z,9.30
2023-04-16T09:25:22.836Z,9.40
2023-04-16T09:27:51.120Z,9.40
2023-04-16T09:30:21.911Z,9.40
2023-04-16T09:32:51.386Z,9.50
2023-04-16T09:35:22.242Z,9.50
2023-04-16T09:37:57.220Z,9.50
2023-04-16T09:40:27.170Z,9.40
2023-04-16T09:42:57.191Z,9.50
2023-04-16T09:45:24.824Z,9.40
2023-04-16T09:47:52.442Z,9.50
2023-04-16T09:50:21.007Z,9.50
2023-04-16T09:52:53.748Z,9.40
2023-04-16T09:55:27.245Z,9.40
2023-04-16T09:58:01.262Z,9.40
2023-04-16T10:00:30.604Z,9.40
2023-04-16T10:03:06.348Z,9.40
2023-04-16T10:05:34.200Z,9.30
2023-04-16T10:08:02.192Z,9.30
2023-04-16T10:10:30.203Z,9.30
2023-04-16T10:12:58.149Z,10.40
2023-04-16T10:15:25.989Z,9.30
2023-04-16T10:17:54.319Z,9.40
2023-04-16T10:20:23.947Z,9.30
2023-04-16T10:22:52.137Z,9.40
2023-04-16T10:25:20.204Z,9.40
2023-04-16T10:27:48.398Z,9.60
2023-04-16T10:30:20.305Z,9.90
2023-04-16T10:32:49.209Z,9.90
2023-04-16T10:35:20.558Z,10.10
2023-04-16T10:37:48.198Z,10.20
2023-04-16T10:40:27.218Z,10.30
2023-04-16T10:42:56.682Z,10.30
2023-04-16T10:45:42.159Z,10.30
2023-04-16T10:48:10.141Z,10.40
2023-04-16T10:50:38.173Z,10.40
2023-04-16T10:53:20.318Z,10.50
2023-04-16T10:56:04.626Z,10.50
2023-04-16T10:58:35.798Z,10.60
2023-04-16T11:01:15.824Z,10.60
2023-04-16T11:03:44.442Z,10.60
2023-04-16T11:06:38.283Z,10.70
2023-04-16T11:09:05.872Z,10.70
2023-04-16T11:11:39.658Z,10.70
2023-04-16T11:14:10.354Z,10.70
2023-04-16T11:16:40.825Z,10.70
2023-04-16T11:21:36.736Z,10.60
2023-04-16T11:24:04.357Z,10.60
2023-04-16T11:26:31.897Z,10.70
2023-04-16T11:29:00.296Z,10.70
2023-04-16T11:31:30.622Z,10.70
2023-04-16T11:33:58.354Z,10.70
2023-04-16T11:36:27.881Z,10.80
2023-04-16T11:39:02.439Z,10.80
2023-04-16T11:41:30.680Z,10.90
2023-04-16T11:43:58.894Z,11.00
2023-04-16T11:46:40.467Z,11.00
2023-04-16T11:49:08.843Z,11.00
2023-04-16T11:51:41.694Z,11.00
2023-04-16T11:54:12.069Z,11.00
2023-04-16T11:56:47.491Z,11.00
2023-04-16T11:59:20.801Z,11.10
2023-04-16T12:01:56.046Z,11.10
2023-04-16T12:04:28.085Z,11.10
2023-04-16T12:07:12.253Z,11.10
2023-04-16T12:09:44.331Z,11.10
2023-04-16T12:12:31.413Z,11.00
2023-04-16T12:15:03.608Z,10.90
2023-04-16T12:17:33.567Z,10.90
2023-04-16T12:20:06.090Z,10.90
2023-04-16T12:22:36.786Z,10.90
2023-04-16T12:25:07.963Z,11.00
2023-04-16T12:27:57.922Z,11.10
2023-04-16T12:30:26.555Z,11.20
2023-04-16T12:33:14.649Z,11.20
2023-04-16T12:35:44.045Z,11.30
2023-04-16T12:38:12.122Z,11.40
2023-04-16T12:40:39.773Z,11.60
2023-04-16T12:43:08.544Z,11.70
2023-04-16T12:45:36.264Z,11.70
2023-04-16T12:48:03.996Z,11.80
2023-04-16T12:50:31.808Z,12.00
2023-04-16T12:52:59.782Z,12.10
2023-04-16T12:55:30.253Z,12.20
2023-04-16T12:57:58.143Z,12.30
2023-04-16T13:00:25.840Z,12.50
2023-04-16T13:02:53.446Z,12.50
2023-04-16T13:05:21.069Z,12.70
2023-04-16T13:07:48.579Z,12.70
2023-04-16T13:10:16.751Z,12.80
2023-04-16T13:12:44.555Z,12.80
2023-04-16T13:15:12.070Z,12.80
2023-04-16T13:17:39.627Z,12.60
2023-04-16T13:20:07.751Z,12.50
2023-04-16T13:22:35.471Z,12.30
2023-04-16T13:25:03.014Z,12.20
2023-04-16T13:27:32.233Z,12.10
2023-04-16T13:29:59.873Z,12.10
2023-04-16T13:32:27.822Z,12.00
2023-04-16T13:34:55.810Z,12.10
2023-04-16T13:37:23.398Z,12.10
2023-04-16T13:39:50.908Z,12.20
2023-04-16T13:42:18.504Z,12.20
2023-04-16T13:44:53.110Z,12.20
2023-04-16T13:47:21.071Z,12.20
2023-04-16T13:49:49.191Z,12.20
2023-04-16T13:52:17.104Z,12.20
2023-04-16T13:54:44.743Z,12.10
2023-04-16T13:57:20.253Z,12.10
2023-04-16T13:59:48.222Z,12.10
2023-04-16T14:02:16.029Z,12.00
2023-04-16T14:04:43.718Z,12.00
2023-04-16T14:07:11.233Z,12.10
2023-04-16T14:09:38.776Z,12.20
2023-04-16T14:12:06.860Z,12.20
2023-04-16T14:14:35.067Z,12.20
2023-04-16T14:17:03.332Z,12.20
2023-04-16T14:19:31.302Z,12.30
2023-04-16T14:21:58.845Z,12.40
2023-04-16T14:24:26.493Z,12.40
2023-04-16T14:26:54.242Z,12.50
2023-04-16T14:31:50.614Z,12.50
2023-04-16T14:34:18.363Z,12.50
2023-04-16T14:36:46.048Z,12.50
2023-04-16T14:39:16.973Z,12.50
2023-04-16T14:41:45.738Z,12.50
2023-04-16T14:44:13.334Z,12.40
2023-04-16T14:46:41.131Z,12.40
2023-04-16T14:49:11.965Z,12.40
2023-04-16T14:51:40.923Z,12.40
2023-04-16T14:54:08.534Z,12.50
2023-04-16T14:56:38.542Z,12.50
2023-04-16T14:59:06.808Z,12.50
2023-04-16T15:01:35.985Z,12.50
2023-04-16T15:04:03.656Z,12.50
2023-04-16T15:09:00.074Z,12.40
2023-04-16T15:11:28.509Z,12.30
2023-04-16T15:13:57.661Z,12.40
2023-04-16T15:16:25.322Z,12.40
2023-04-16T15:18:53.065Z,12.50
2023-04-16T15:21:21.361Z,12.50
2023-04-16T15:23:49.029Z,12.50
2023-04-16T15:26:16.959Z,12.50
2023-04-16T15:28:44.484Z,12.50
2023-04-16T15:31:12.270Z,12.50
2023-04-16T15:33:40.098Z,12.50
2023-04-16T15:36:07.729Z,12.50
2023-04-16T15:38:35.651Z,12.60
2023-04-16T15:41:03.179Z,12.60
2023-04-16T15:43:30.874Z,12.60
2023-04-16T15:45:58.686Z,12.60
2023-04-16T15:48:26.411Z,12.70
2023-04-16T15:50:54.343Z,12.70
2023-04-16T15:53:22.304Z,12.80
2023-04-16T15:55:52.693Z,12.80
2023-04-16T15:58:23.531Z,12.90
2023-04-16T16:00:51.499Z,12.90
2023-04-16T16:03:20.614Z,12.90
2023-04-16T16:08:19.841Z,12.90
2023-04-16T16:10:47.401Z,12.90
2023-04-16T16:13:18.139Z,12.80
2023-04-16T16:15:45.845Z,12.70
2023-04-16T16:18:13.380Z,12.70
2023-04-16T16:20:41.626Z,12.70
2023-04-16T16:23:09.298Z,12.60
2023-04-16T16:25:37.257Z,12.60
2023-04-16T16:28:06.516Z,12.60
2023-04-16T16:30:37.182Z,12.60
2023-04-16T16:33:04.671Z,12.50
2023-04-16T16:35:32.210Z,12.50
2023-04-16T16:37:59.758Z,12.40
2023-04-16T16:40:27.533Z,12.40
2023-04-16T16:42:56.934Z,12.40
2023-04-16T16:45:27.335Z,12.40
2023-04-16T16:47:55.508Z,12.40
2023-04-16T16:50:23.099Z,12.30
2023-04-16T16:55:20.416Z,12.30
2023-04-16T16:57:48.026Z,12.30
2023-04-16T17:00:19.994Z,12.30
2023-04-16T17:02:48.917Z,12.20
2023-04-16T17:05:16.947Z,12.20
2023-04-16T17:07:44.548Z,12.20
2023-04-16T17:10:15.868Z,12.20
2023-04-16T17:12:43.643Z,12.20
2023-04-16T17:15:11.575Z,12.30
2023-04-16T17:17:39.351Z,12.30
2023-04-16T17:20:09.957Z,12.30
2023-04-16T17:22:39.081Z,12.30
2023-04-16T17:25:10.483Z,12.60
2023-04-16T17:27:38.005Z,12.20
2023-04-16T17:30:06.782Z,12.30
2023-04-16T17:32:34.613Z,12.20
2023-04-16T17:35:04.416Z,12.20
2023-04-16T17:37:32.380Z,12.20
2023-04-16T17:39:59.852Z,12.20
2023-04-16T17:42:27.593Z,12.10
2023-04-16T17:44:55.312Z,12.00
2023-04-16T17:47:22.826Z,12.00
2023-04-16T17:49:54.328Z,12.00
2023-04-16T17:52:22.472Z,11.90
2023-04-16T17:54:50.106Z,11.90
2023-04-16T17:57:17.800Z,11.90
2023-04-16T18:02:14.057Z,11.90
2023-04-16T18:04:42.219Z,11.80
2023-04-16T18:07:09.860Z,11.90
2023-04-16T18:09:37.439Z,11.90
2023-04-16T18:12:05.525Z,11.80
2023-04-16T18:14:37.207Z,11.90
2023-04-16T18:17:06.606Z,11.90
2023-04-16T18:19:35.992Z,11.80
2023-04-16T18:22:03.659Z,11.80
2023-04-16T18:24:35.008Z,11.80
2023-04-16T18:27:03.441Z,11.80
2023-04-16T18:29:33.905Z,11.80
2023-04-16T18:32:04.401Z,11.80
2023-04-16T18:34:32.612Z,11.80
2023-04-16T18:37:00.759Z,11.70
2023-04-16T18:39:28.469Z,11.70
2023-04-16T18:41:56.603Z,11.00
2023-04-16T18:44:24.523Z,11.70
2023-04-16T18:46:52.053Z,11.60
2023-04-16T18:49:19.714Z,11.60
2023-04-16T18:51:47.308Z,11.60
2023-04-16T18:54:17.326Z,11.60
2023-04-16T18:56:45.179Z,11.60
2023-04-16T19:01:41.373Z,11.60
2023-04-16T19:04:09.261Z,11.60
2023-04-16T19:06:36.871Z,11.60
2023-04-16T19:09:04.367Z,11.50
2023-04-16T19:11:31.886Z,11.50
2023-04-16T19:14:02.131Z,11.50
2023-04-16T19:16:30.040Z,11.50
2023-04-16T19:18:57.717Z,11.50
2023-04-16T19:21:27.486Z,11.50
2023-04-16T19:23:55.033Z,11.50
2023-04-16T19:26:22.567Z,11.50
2023-04-16T19:28:50.139Z,11.50
2023-04-16T19:31:18.012Z,11.50
2023-04-16T19:33:45.678Z,11.50
2023-04-16T19:36:13.205Z,11.50
2023-04-16T19:38:41.159Z,11.50
2023-04-16T19:41:08.649Z,11.50
2023-04-16T19:43:37.339Z,11.40
2023-04-16T19:46:05.009Z,11.40
2023-04-16T19:48:32.651Z,11.40
2023-04-16T19:51:06.035Z,11.40
2023-04-16T19:53:34.839Z,11.40
2023-04-16T19:56:02.509Z,11.50
2023-04-16T19:58:30.339Z,11.40
2023-04-16T20:01:00.801Z,11.40
2023-04-16T20:03:28.494Z,11.40
2023-04-16T20:05:56.176Z,11.40
2023-04-16T20:08:24.585Z,11.40
2023-04-16T20:10:54.476Z,11.40
2023-04-16T20:13:24.540Z,11.40
2023-04-16T20:15:53.118Z,11.40
2023-04-16T20:18:21.267Z,11.40
2023-04-16T20:20:52.055Z,11.40
2023-04-16T20:23:20.011Z,11.40
2023-04-16T20:25:48.246Z,11.40
2023-04-16T20:28:18.199Z,11.30
2023-04-16T20:30:46.133Z,11.40
2023-04-16T20:33:13.790Z,11.30
2023-04-16T20:35:41.678Z,11.40
2023-04-16T20:38:09.488Z,11.30
2023-04-16T20:40:38.721Z,11.40
2023-04-16T20:43:10.239Z,11.30
2023-04-16T20:45:38.301Z,11.30
2023-04-16T20:48:06.439Z,11.30
2023-04-16T20:50:34.038Z,11.30
2023-04-16T20:53:04.223Z,11.30
2023-04-16T20:55:32.434Z,11.20
2023-04-16T21:00:28.379Z,11.30
2023-04-16T21:02:56.075Z,11.30
2023-04-16T21:05:26.564Z,11.30
2023-04-16T21:07:55.746Z,11.30
2023-04-16T21:10:23.903Z,11.30
2023-04-16T21:12:51.828Z,11.20
2023-04-16T21:15:19.674Z,11.20
2023-04-16T21:17:47.338Z,11.20
2023-04-16T21:20:16.562Z,11.20
2023-04-16T21:22:44.222Z,11.20
2023-04-16T21:25:12.026Z,11.20
2023-04-16T21:27:46.802Z,11.20
2023-04-16T21:30:14.813Z,11.20
2023-04-16T21:32:42.560Z,11.20
2023-04-16T21:35:10.589Z,11.20
2023-04-16T21:37:38.426Z,11.20
2023-04-16T21:40:06.831Z,11.20
2023-04-16T21:42:39.998Z,11.20
2023-04-16T21:45:09.780Z,11.20
2023-04-16T21:47:38.374Z,11.20
2023-04-16T21:50:06.778Z,11.20
2023-04-16T21:52:40.173Z,11.20
2023-04-16T21:55:09.409Z,11.20
2023-04-16T21:57:37.096Z,11.20
2023-04-16T22:00:11.999Z,11.20
2023-04-16T22:02:43.116Z,11.20
2023-04-16T22:05:12.156Z,11.20
2023-04-16T22:07:39.728Z,11.20
2023-04-16T22:10:08.787Z,11.10
2023-04-16T22:12:37.901Z,11.20
2023-04-16T22:15:07.247Z,11.10
2023-04-16T22:17:36.049Z,11.20
2023-04-16T22:20:13.444Z,11.10
2023-04-16T22:22:42.141Z,11.10
2023-04-16T22:25:10.690Z,11.10
2023-04-16T22:27:38.501Z,11.10
2023-04-16T22:30:08.354Z,11.10
2023-04-16T22:32:36.357Z,11.10
2023-04-16T22:35:04.119Z,11.10
2023-04-16T22:37:31.661Z,11.00
2023-04-16T22:39:59.247Z,11.10
2023-04-16T22:42:27.767Z,11.00
2023-04-16T22:44:55.921Z,12.80
2023-04-16T22:47:25.751Z,11.00
2023-04-16T22:49:54.334Z,11.00
2023-04-16T22:52:21.793Z,11.00
2023-04-16T22:54:49.350Z,11.00
2023-04-16T22:57:21.005Z,11.00
2023-04-16T22:59:48.657Z,11.00
2023-04-16T23:04:47.987Z,11.00
2023-04-16T23:07:16.229Z,11.00
2023-04-16T23:09:43.784Z,11.00
2023-04-16T23:12:11.276Z,11.00
2023-04-16T23:14:38.911Z,11.00
2023-04-16T23:19:34.298Z,11.00
2023-04-16T23:22:01.964Z,11.10
2023-04-16T23:24:29.546Z,11.10
2023-04-16T23:26:58.015Z,11.00
2023-04-16T23:29:25.553Z,11.00
2023-04-16T23:31:53.302Z,11.10
2023-04-16T23:34:20.988Z,11.10
2023-04-16T23:36:48.515Z,11.00
2023-04-16T23:39:16.253Z,11.10
2023-04-16T23:41:43.767Z,11.00
2023-04-16T23:44:11.319Z,11.00
2023-04-16T23:46:40.593Z,11.10
2023-04-16T23:49:08.409Z,11.10
2023-04-16T23:51:36.184Z,11.00
2023-04-16T23:54:03.968Z,11.00
2023-04-16T23:56:31.667Z,11.00
2023-04-16T23:58:59.244Z,11.00
